Sugar Loaf, Idaho
Current Conditions -  °F | °C
As of 4:53 AM on Tuesday 27 Jan 2015 (Local Time) from KJER Reporting Station
Clear Clear  
Wind Chill: 26°   Ceiling: Unl
Heat Index: 35°   Visibility: 10mi
Dew Point: 30°   Wind: 15mph
Humidity: 82%   Direction: 50°NE
Pressure: 30.08"   Gusts: NA
Location:  42.7238°N, 114.338°W
Report Text: KJER 271153Z AUTO 05013KT 10SM CLR 02/M01 A3008 RMK AO2 SLP194 T00171011 10028 20011 55009
Loading
Personal Weather Stations






























Interactive Weather Map New forecast layout! Learn more

10-Day Weather Forecast

Advertisements
Track Severe Weather on mobile